Tropical Cyclones
[Index]
Main Index Home Page Stock Weather Photos Extreme Storms Discussion Storm News and Storm Chasing Reports Tropical Cyclones / Hurricanes / Typhoons Weather Data and Links Wild Fires / Bushfires Weather Observation Techniques Weather Picture Catalogue Tornado Pictures and Reports Stock Video Footage and DVDs for sale
Season 1993-1994 Tropical Cyclone VIVIENNE Track Map
Season 1993-1994 Summaries: [BoM-AU] [JTWC-AU] [JTWC-SIO] [JTWC-SPAC] [JTWC-SH]
<<- Previous TC | JTWC 1993-1994 Season | Next TC ->>

click for intensity scale information  Lat/long Grid: Show Hide

 Date Labels: Show Hide

Joint Typhoon Warning Centre Cyclone Data

Name: VIVIENNE

05 Apr 1994 00:00 UTC to 13 Apr 1994 06:00 UTC

    date/time    lat    long     hPa   cat  kts
1994-04-05 00    8.3   128.9                  20          
1994-04-05 06    9.3   128.5                  20          
1994-04-05 12   10.0   127.8                  25          
1994-04-05 18   10.6   127.2                  25          
1994-04-06 00   11.1   126.5                  25          
1994-04-06 06   11.3   125.2                  25          
1994-04-06 12   11.1   124.2                  25          
1994-04-06 18   11.1   123.5                  25          
1994-04-07 00   11.3   123.1                  30          
1994-04-07 06   11.5   122.5            1     40          
1994-04-07 12   11.7   122.0            1     50          
1994-04-07 18   12.1   121.3            1     50          
1994-04-08 00   12.6   120.7            2     55          
1994-04-08 06   13.1   120.2            2     60          
1994-04-08 12   13.6   119.7            2     65          
1994-04-08 18   14.0   119.1            2     65          
1994-04-09 00   14.4   118.6            2     70          
1994-04-09 06   14.7   117.7            2     70          
1994-04-09 12   15.0   116.7            2     65          
1994-04-09 18   15.2   115.6            2     65          
1994-04-10 00   15.4   114.2            2     60          
1994-04-10 06   15.9   112.7            2     55          
1994-04-10 12   16.5   111.3            1     50          
1994-04-10 18   16.9   110.0            1     50          
1994-04-11 00   17.0   108.3            1     45          
1994-04-11 06   17.1   106.7            1     45          
1994-04-11 12   17.2   105.8            1     40          
1994-04-11 18   17.3   105.4            1     40          
1994-04-12 00   17.6   105.2                  35          
1994-04-12 06   18.1   105.0                  35          
1994-04-12 12   18.9   105.0                  30          
1994-04-12 18   19.7   105.1                  25          
1994-04-13 00   20.6   105.2                  25          
1994-04-13 06   21.5   105.5                  20          
Winds are 1-min average.

Tropical cyclone tracks developed by Michael Bath using data from the Joint Typhoon Warning Centre Best Tracks and Google Maps.


[Australian Severe Weather index] [Copyright Notice] [Email Contacts] [Search This Site] [Privacy Policy]
Document: tropical_cyclone_vivienne.htm Updated: 18 September 2016